sensor_id;sensor_type;location;lat;lon;timestamp;temperature;humidity
21246;DHT22;10781;50.928;4.440;2022-08-16T00:01:47;23.90;99.90
21246;DHT22;10781;50.928;4.440;2022-08-16T00:04:13;23.90;99.90
21246;DHT22;10781;50.928;4.440;2022-08-16T00:06:38;24.00;99.90
21246;DHT22;10781;50.928;4.440;2022-08-16T00:09:04;24.10;99.90
21246;DHT22;10781;50.928;4.440;2022-08-16T00:11:33;24.00;99.90
21246;DHT22;10781;50.928;4.440;2022-08-16T00:13:59;23.80;99.90
21246;DHT22;10781;50.928;4.440;2022-08-16T00:16:28;23.80;99.90
21246;DHT22;10781;50.928;4.440;2022-08-16T00:18:56;23.70;99.90
21246;DHT22;10781;50.928;4.440;2022-08-16T00:21:22;23.70;99.90
21246;DHT22;10781;50.928;4.440;2022-08-16T00:23:48;23.80;99.90
21246;DHT22;10781;50.928;4.440;2022-08-16T00:26:13;23.80;99.90
21246;DHT22;10781;50.928;4.440;2022-08-16T00:28:39;23.90;99.90
21246;DHT22;10781;50.928;4.440;2022-08-16T00:31:04;23.90;99.90
21246;DHT22;10781;50.928;4.440;2022-08-16T00:33:30;23.90;99.90
21246;DHT22;10781;50.928;4.440;2022-08-16T00:35:55;24.00;99.90
21246;DHT22;10781;50.928;4.440;2022-08-16T00:38:21;23.90;99.90
21246;DHT22;10781;50.928;4.440;2022-08-16T00:40:50;24.10;99.90
21246;DHT22;10781;50.928;4.440;2022-08-16T00:43:20;24.10;99.90
21246;DHT22;10781;50.928;4.440;2022-08-16T00:48:26;24.20;99.90
21246;DHT22;10781;50.928;4.440;2022-08-16T00:50:52;24.10;99.90
21246;DHT22;10781;50.928;4.440;2022-08-16T00:53:21;24.10;99.90
21246;DHT22;10781;50.928;4.440;2022-08-16T00:55:51;24.10;99.90
21246;DHT22;10781;50.928;4.440;2022-08-16T00:58:19;23.80;99.90
21246;DHT22;10781;50.928;4.440;2022-08-16T01:00:46;23.70;99.90
21246;DHT22;10781;50.928;4.440;2022-08-16T01:03:15;23.70;99.90
21246;DHT22;10781;50.928;4.440;2022-08-16T01:05:42;23.80;99.90
21246;DHT22;10781;50.928;4.440;2022-08-16T01:08:11;23.90;99.90
21246;DHT22;10781;50.928;4.440;2022-08-16T01:10:37;24.00;99.90
21246;DHT22;10781;50.928;4.440;2022-08-16T01:13:10;24.00;99.90
21246;DHT22;10781;50.928;4.440;2022-08-16T01:15:39;23.90;99.90
21246;DHT22;10781;50.928;4.440;2022-08-16T01:18:07;24.00;99.90
21246;DHT22;10781;50.928;4.440;2022-08-16T01:20:39;23.90;99.90
21246;DHT22;10781;50.928;4.440;2022-08-16T01:23:16;23.70;99.90
21246;DHT22;10781;50.928;4.440;2022-08-16T01:25:45;23.60;99.90
21246;DHT22;10781;50.928;4.440;2022-08-16T01:28:15;23.50;99.90
21246;DHT22;10781;50.928;4.440;2022-08-16T01:30:45;23.50;99.90
21246;DHT22;10781;50.928;4.440;2022-08-16T01:33:11;23.50;99.90
21246;DHT22;10781;50.928;4.440;2022-08-16T01:35:51;23.80;99.90
21246;DHT22;10781;50.928;4.440;2022-08-16T01:41:13;23.70;99.90
21246;DHT22;10781;50.928;4.440;2022-08-16T01:43:41;23.70;99.90
21246;DHT22;10781;50.928;4.440;2022-08-16T01:46:19;23.90;99.90
21246;DHT22;10781;50.928;4.440;2022-08-16T01:48:45;23.80;99.90
21246;DHT22;10781;50.928;4.440;2022-08-16T01:51:13;23.60;99.90
21246;DHT22;10781;50.928;4.440;2022-08-16T01:53:41;23.70;99.90
21246;DHT22;10781;50.928;4.440;2022-08-16T01:56:07;23.60;99.90
21246;DHT22;10781;50.928;4.440;2022-08-16T01:58:33;23.60;99.90
21246;DHT22;10781;50.928;4.440;2022-08-16T02:00:58;23.60;99.90
21246;DHT22;10781;50.928;4.440;2022-08-16T02:03:24;23.60;99.90
21246;DHT22;10781;50.928;4.440;2022-08-16T02:05:50;23.60;99.90
21246;DHT22;10781;50.928;4.440;2022-08-16T02:08:16;23.50;99.90
21246;DHT22;10781;50.928;4.440;2022-08-16T02:10:42;23.40;99.90
21246;DHT22;10781;50.928;4.440;2022-08-16T02:13:07;23.30;99.90
21246;DHT22;10781;50.928;4.440;2022-08-16T02:15:35;23.40;99.90
21246;DHT22;10781;50.928;4.440;2022-08-16T02:18:02;23.40;99.90
21246;DHT22;10781;50.928;4.440;2022-08-16T02:20:32;23.20;99.90
21246;DHT22;10781;50.928;4.440;2022-08-16T02:22:59;23.30;99.90
21246;DHT22;10781;50.928;4.440;2022-08-16T02:25:26;23.40;99.90
21246;DHT22;10781;50.928;4.440;2022-08-16T02:27:52;23.40;99.90
21246;DHT22;10781;50.928;4.440;2022-08-16T02:30:23;23.40;99.90
21246;DHT22;10781;50.928;4.440;2022-08-16T02:32:49;23.30;99.90
21246;DHT22;10781;50.928;4.440;2022-08-16T02:35:15;23.40;99.90
21246;DHT22;10781;50.928;4.440;2022-08-16T02:37:41;23.30;99.90
21246;DHT22;10781;50.928;4.440;2022-08-16T02:40:08;23.30;99.90
21246;DHT22;10781;50.928;4.440;2022-08-16T02:42:34;23.30;99.90
21246;DHT22;10781;50.928;4.440;2022-08-16T02:45:00;23.40;99.90
21246;DHT22;10781;50.928;4.440;2022-08-16T02:47:26;23.40;99.90
21246;DHT22;10781;50.928;4.440;2022-08-16T02:49:52;23.40;99.90
21246;DHT22;10781;50.928;4.440;2022-08-16T02:52:18;23.50;99.90
21246;DHT22;10781;50.928;4.440;2022-08-16T02:54:44;23.50;99.90
21246;DHT22;10781;50.928;4.440;2022-08-16T02:57:09;23.50;99.90
21246;DHT22;10781;50.928;4.440;2022-08-16T02:59:35;23.50;99.90
21246;DHT22;10781;50.928;4.440;2022-08-16T03:02:02;23.30;99.90
21246;DHT22;10781;50.928;4.440;2022-08-16T03:04:28;23.20;99.90
21246;DHT22;10781;50.928;4.440;2022-08-16T03:06:54;23.30;99.90
21246;DHT22;10781;50.928;4.440;2022-08-16T03:09:21;23.40;99.90
21246;DHT22;10781;50.928;4.440;2022-08-16T03:11:46;23.40;99.90
21246;DHT22;10781;50.928;4.440;2022-08-16T03:14:12;23.40;99.90
21246;DHT22;10781;50.928;4.440;2022-08-16T03:16:38;23.20;99.90
21246;DHT22;10781;50.928;4.440;2022-08-16T03:19:05;23.20;99.90
21246;DHT22;10781;50.928;4.440;2022-08-16T03:21:31;23.10;99.90
21246;DHT22;10781;50.928;4.440;2022-08-16T03:23:57;23.10;99.90
21246;DHT22;10781;50.928;4.440;2022-08-16T03:26:23;23.10;99.90
21246;DHT22;10781;50.928;4.440;2022-08-16T03:28:48;23.00;99.90
21246;DHT22;10781;50.928;4.440;2022-08-16T03:31:14;23.00;99.90
21246;DHT22;10781;50.928;4.440;2022-08-16T03:33:40;22.60;99.90
21246;DHT22;10781;50.928;4.440;2022-08-16T03:36:06;22.40;99.90
21246;DHT22;10781;50.928;4.440;2022-08-16T03:38:32;22.30;99.90
21246;DHT22;10781;50.928;4.440;2022-08-16T03:40:58;22.10;99.90
21246;DHT22;10781;50.928;4.440;2022-08-16T03:43:26;22.00;99.90
21246;DHT22;10781;50.928;4.440;2022-08-16T03:45:53;22.00;99.90
21246;DHT22;10781;50.928;4.440;2022-08-16T03:48:21;22.10;99.90
21246;DHT22;10781;50.928;4.440;2022-08-16T03:50:48;21.90;99.90
21246;DHT22;10781;50.928;4.440;2022-08-16T03:53:14;21.80;99.90
21246;DHT22;10781;50.928;4.440;2022-08-16T03:55:39;21.90;99.90
21246;DHT22;10781;50.928;4.440;2022-08-16T03:58:06;22.00;99.90
21246;DHT22;10781;50.928;4.440;2022-08-16T04:00:32;21.90;99.90
21246;DHT22;10781;50.928;4.440;2022-08-16T04:02:59;21.90;99.90
21246;DHT22;10781;50.928;4.440;2022-08-16T04:05:32;21.80;99.90
21246;DHT22;10781;50.928;4.440;2022-08-16T04:07:57;21.70;99.90
21246;DHT22;10781;50.928;4.440;2022-08-16T04:10:23;21.70;99.90
21246;DHT22;10781;50.928;4.440;2022-08-16T04:12:49;21.60;99.90
21246;DHT22;10781;50.928;4.440;2022-08-16T04:15:15;21.60;99.90
21246;DHT22;10781;50.928;4.440;2022-08-16T04:17:42;21.70;99.90
21246;DHT22;10781;50.928;4.440;2022-08-16T04:20:10;21.80;99.90
21246;DHT22;10781;50.928;4.440;2022-08-16T04:22:36;21.90;99.90
21246;DHT22;10781;50.928;4.440;2022-08-16T04:25:03;21.90;99.90
21246;DHT22;10781;50.928;4.440;2022-08-16T04:27:29;21.80;99.90
21246;DHT22;10781;50.928;4.440;2022-08-16T04:29:55;21.80;99.90
21246;DHT22;10781;50.928;4.440;2022-08-16T04:32:22;21.60;99.90
21246;DHT22;10781;50.928;4.440;2022-08-16T04:34:47;21.70;99.90
21246;DHT22;10781;50.928;4.440;2022-08-16T04:37:13;21.80;99.90
21246;DHT22;10781;50.928;4.440;2022-08-16T04:39:39;22.00;99.90
21246;DHT22;10781;50.928;4.440;2022-08-16T04:42:05;22.00;99.90
21246;DHT22;10781;50.928;4.440;2022-08-16T04:44:31;22.00;99.90
21246;DHT22;10781;50.928;4.440;2022-08-16T04:46:57;22.00;99.90
21246;DHT22;10781;50.928;4.440;2022-08-16T04:49:23;22.00;99.90
21246;DHT22;10781;50.928;4.440;2022-08-16T04:51:49;22.00;99.90
21246;DHT22;10781;50.928;4.440;2022-08-16T04:54:16;22.20;99.90
21246;DHT22;10781;50.928;4.440;2022-08-16T04:56:41;22.20;99.90
21246;DHT22;10781;50.928;4.440;2022-08-16T04:59:07;22.10;99.90
21246;DHT22;10781;50.928;4.440;2022-08-16T05:01:34;22.10;99.90
21246;DHT22;10781;50.928;4.440;2022-08-16T05:04:00;22.10;99.90
21246;DHT22;10781;50.928;4.440;2022-08-16T05:06:28;22.10;99.90
21246;DHT22;10781;50.928;4.440;2022-08-16T05:08:54;22.10;99.90
21246;DHT22;10781;50.928;4.440;2022-08-16T05:11:20;22.10;99.90
21246;DHT22;10781;50.928;4.440;2022-08-16T05:13:47;22.10;99.90
21246;DHT22;10781;50.928;4.440;2022-08-16T05:16:20;22.30;99.90
21246;DHT22;10781;50.928;4.440;2022-08-16T05:18:47;22.10;99.90
21246;DHT22;10781;50.928;4.440;2022-08-16T05:21:13;21.90;99.90
21246;DHT22;10781;50.928;4.440;2022-08-16T05:23:39;22.00;99.90
21246;DHT22;10781;50.928;4.440;2022-08-16T05:26:05;22.00;99.90
21246;DHT22;10781;50.928;4.440;2022-08-16T05:28:30;22.10;99.90
21246;DHT22;10781;50.928;4.440;2022-08-16T05:30:56;22.10;99.90
21246;DHT22;10781;50.928;4.440;2022-08-16T05:33:22;22.10;99.90
21246;DHT22;10781;50.928;4.440;2022-08-16T05:35:48;22.30;99.90
21246;DHT22;10781;50.928;4.440;2022-08-16T05:38:14;22.60;99.90
21246;DHT22;10781;50.928;4.440;2022-08-16T05:40:40;22.60;99.90
21246;DHT22;10781;50.928;4.440;2022-08-16T05:43:06;22.70;99.90
21246;DHT22;10781;50.928;4.440;2022-08-16T05:45:32;22.80;99.90
21246;DHT22;10781;50.928;4.440;2022-08-16T05:47:58;22.60;99.90
21246;DHT22;10781;50.928;4.440;2022-08-16T05:50:24;22.60;99.90
21246;DHT22;10781;50.928;4.440;2022-08-16T05:52:49;22.60;99.90
21246;DHT22;10781;50.928;4.440;2022-08-16T05:55:16;22.70;99.90
21246;DHT22;10781;50.928;4.440;2022-08-16T05:57:44;22.80;99.90
21246;DHT22;10781;50.928;4.440;2022-08-16T06:00:11;22.90;99.90
21246;DHT22;10781;50.928;4.440;2022-08-16T06:02:39;23.10;99.90
21246;DHT22;10781;50.928;4.440;2022-08-16T06:05:05;23.20;99.90
21246;DHT22;10781;50.928;4.440;2022-08-16T06:07:31;23.20;99.90
21246;DHT22;10781;50.928;4.440;2022-08-16T06:09:57;23.20;99.90
21246;DHT22;10781;50.928;4.440;2022-08-16T06:12:24;23.30;99.90
21246;DHT22;10781;50.928;4.440;2022-08-16T06:14:50;23.50;99.90
21246;DHT22;10781;50.928;4.440;2022-08-16T06:17:18;23.40;99.90
21246;DHT22;10781;50.928;4.440;2022-08-16T06:19:44;23.30;99.90
21246;DHT22;10781;50.928;4.440;2022-08-16T06:22:10;23.30;99.90
21246;DHT22;10781;50.928;4.440;2022-08-16T06:24:36;23.30;99.90
21246;DHT22;10781;50.928;4.440;2022-08-16T06:27:01;23.30;99.90
21246;DHT22;10781;50.928;4.440;2022-08-16T06:29:27;23.40;99.90
21246;DHT22;10781;50.928;4.440;2022-08-16T06:31:53;23.50;99.90
21246;DHT22;10781;50.928;4.440;2022-08-16T06:34:18;23.50;99.90
21246;DHT22;10781;50.928;4.440;2022-08-16T06:36:44;23.60;99.90
21246;DHT22;10781;50.928;4.440;2022-08-16T06:39:10;23.70;99.90
21246;DHT22;10781;50.928;4.440;2022-08-16T06:41:35;23.70;99.90
21246;DHT22;10781;50.928;4.440;2022-08-16T06:44:01;23.90;99.90
21246;DHT22;10781;50.928;4.440;2022-08-16T06:46:30;24.20;99.90
21246;DHT22;10781;50.928;4.440;2022-08-16T06:49:02;25.00;99.90
21246;DHT22;10781;50.928;4.440;2022-08-16T06:51:28;26.30;99.90
21246;DHT22;10781;50.928;4.440;2022-08-16T06:53:54;27.80;99.90
21246;DHT22;10781;50.928;4.440;2022-08-16T06:56:20;28.80;99.90
21246;DHT22;10781;50.928;4.440;2022-08-16T06:58:45;29.30;99.90
21246;DHT22;10781;50.928;4.440;2022-08-16T07:01:11;29.80;99.90
21246;DHT22;10781;50.928;4.440;2022-08-16T07:03:37;30.20;99.90
21246;DHT22;10781;50.928;4.440;2022-08-16T07:06:03;30.50;99.60
21246;DHT22;10781;50.928;4.440;2022-08-16T07:08:29;31.40;97.40
21246;DHT22;10781;50.928;4.440;2022-08-16T07:10:55;32.20;94.20
21246;DHT22;10781;50.928;4.440;2022-08-16T07:13:21;32.70;92.50
21246;DHT22;10781;50.928;4.440;2022-08-16T07:15:47;32.80;91.40
21246;DHT22;10781;50.928;4.440;2022-08-16T07:18:14;33.50;90.00
21246;DHT22;10781;50.928;4.440;2022-08-16T07:20:41;33.90;85.70
21246;DHT22;10781;50.928;4.440;2022-08-16T07:23:09;33.50;84.60
21246;DHT22;10781;50.928;4.440;2022-08-16T07:25:34;33.80;83.30
21246;DHT22;10781;50.928;4.440;2022-08-16T07:28:00;34.30;81.80
21246;DHT22;10781;50.928;4.440;2022-08-16T07:30:27;35.00;78.40
21246;DHT22;10781;50.928;4.440;2022-08-16T07:32:54;35.70;76.20
21246;DHT22;10781;50.928;4.440;2022-08-16T07:35:20;36.20;72.50
21246;DHT22;10781;50.928;4.440;2022-08-16T07:37:46;36.00;71.10
21246;DHT22;10781;50.928;4.440;2022-08-16T07:40:11;35.60;69.50
21246;DHT22;10781;50.928;4.440;2022-08-16T07:42:37;35.20;70.00
21246;DHT22;10781;50.928;4.440;2022-08-16T07:45:05;35.30;69.40
21246;DHT22;10781;50.928;4.440;2022-08-16T07:47:31;35.40;67.40
21246;DHT22;10781;50.928;4.440;2022-08-16T07:49:56;35.60;67.40
21246;DHT22;10781;50.928;4.440;2022-08-16T07:52:22;35.80;66.80
21246;DHT22;10781;50.928;4.440;2022-08-16T07:54:47;35.40;65.60
21246;DHT22;10781;50.928;4.440;2022-08-16T07:57:13;34.90;66.90
21246;DHT22;10781;50.928;4.440;2022-08-16T07:59:39;34.40;67.30
21246;DHT22;10781;50.928;4.440;2022-08-16T08:02:05;34.90;67.60
21246;DHT22;10781;50.928;4.440;2022-08-16T08:04:31;35.60;65.90
21246;DHT22;10781;50.928;4.440;2022-08-16T08:06:59;35.90;63.10
21246;DHT22;10781;50.928;4.440;2022-08-16T08:09:25;36.60;61.60
21246;DHT22;10781;50.928;4.440;2022-08-16T08:11:50;37.40;59.70
21246;DHT22;10781;50.928;4.440;2022-08-16T08:14:16;37.60;59.30
21246;DHT22;10781;50.928;4.440;2022-08-16T08:16:42;37.90;58.80
21246;DHT22;10781;50.928;4.440;2022-08-16T08:19:08;38.40;57.50
21246;DHT22;10781;50.928;4.440;2022-08-16T08:21:38;38.30;57.10
21246;DHT22;10781;50.928;4.440;2022-08-16T08:24:05;38.60;55.80
21246;DHT22;10781;50.928;4.440;2022-08-16T08:26:33;38.50;55.60
21246;DHT22;10781;50.928;4.440;2022-08-16T08:28:59;38.40;54.80
21246;DHT22;10781;50.928;4.440;2022-08-16T08:31:25;38.80;54.40
21246;DHT22;10781;50.928;4.440;2022-08-16T08:33:50;38.50;53.90
21246;DHT22;10781;50.928;4.440;2022-08-16T08:36:32;37.60;51.90
21246;DHT22;10781;50.928;4.440;2022-08-16T08:38:58;37.40;52.10
21246;DHT22;10781;50.928;4.440;2022-08-16T08:41:25;38.30;51.10
21246;DHT22;10781;50.928;4.440;2022-08-16T08:43:54;38.60;50.40
21246;DHT22;10781;50.928;4.440;2022-08-16T08:46:21;39.00;48.80
21246;DHT22;10781;50.928;4.440;2022-08-16T08:48:50;40.20;48.30
21246;DHT22;10781;50.928;4.440;2022-08-16T08:51:16;41.50;47.10
21246;DHT22;10781;50.928;4.440;2022-08-16T08:53:44;40.70;45.00
21246;DHT22;10781;50.928;4.440;2022-08-16T08:56:11;39.90;45.40
21246;DHT22;10781;50.928;4.440;2022-08-16T08:58:37;39.90;45.70
21246;DHT22;10781;50.928;4.440;2022-08-16T09:01:04;39.80;45.40
21246;DHT22;10781;50.928;4.440;2022-08-16T09:03:31;38.70;46.50
21246;DHT22;10781;50.928;4.440;2022-08-16T09:05:57;38.10;47.40
21246;DHT22;10781;50.928;4.440;2022-08-16T09:08:23;38.20;48.00
21246;DHT22;10781;50.928;4.440;2022-08-16T09:10:52;38.10;48.20
21246;DHT22;10781;50.928;4.440;2022-08-16T09:13:17;38.10;49.00
21246;DHT22;10781;50.928;4.440;2022-08-16T09:15:43;38.10;48.00
21246;DHT22;10781;50.928;4.440;2022-08-16T09:18:09;39.00;47.90
21246;DHT22;10781;50.928;4.440;2022-08-16T09:20:34;39.20;47.20
21246;DHT22;10781;50.928;4.440;2022-08-16T09:23:00;39.10;47.00
21246;DHT22;10781;50.928;4.440;2022-08-16T09:25:27;39.00;46.50
21246;DHT22;10781;50.928;4.440;2022-08-16T09:27:53;39.40;46.60
21246;DHT22;10781;50.928;4.440;2022-08-16T09:30:19;39.10;47.10
21246;DHT22;10781;50.928;4.440;2022-08-16T09:32:45;38.70;47.50
21246;DHT22;10781;50.928;4.440;2022-08-16T09:35:11;38.80;47.80
21246;DHT22;10781;50.928;4.440;2022-08-16T09:37:36;38.60;47.70
21246;DHT22;10781;50.928;4.440;2022-08-16T09:40:04;38.50;47.60
21246;DHT22;10781;50.928;4.440;2022-08-16T09:42:30;38.60;48.20
21246;DHT22;10781;50.928;4.440;2022-08-16T09:44:56;38.80;47.60
21246;DHT22;10781;50.928;4.440;2022-08-16T09:47:22;38.10;48.20
21246;DHT22;10781;50.928;4.440;2022-08-16T09:49:48;37.70;48.60
21246;DHT22;10781;50.928;4.440;2022-08-16T09:52:14;37.10;49.50
21246;DHT22;10781;50.928;4.440;2022-08-16T09:54:40;37.50;49.40
21246;DHT22;10781;50.928;4.440;2022-08-16T09:57:06;38.30;49.60
21246;DHT22;10781;50.928;4.440;2022-08-16T09:59:32;38.70;49.30
21246;DHT22;10781;50.928;4.440;2022-08-16T10:01:58;39.60;48.30
21246;DHT22;10781;50.928;4.440;2022-08-16T10:04:25;40.10;46.40
21246;DHT22;10781;50.928;4.440;2022-08-16T10:06:55;40.50;46.30
21246;DHT22;10781;50.928;4.440;2022-08-16T10:09:21;40.00;46.00
21246;DHT22;10781;50.928;4.440;2022-08-16T10:11:48;38.90;47.20
21246;DHT22;10781;50.928;4.440;2022-08-16T10:14:32;38.20;48.40
21246;DHT22;10781;50.928;4.440;2022-08-16T10:17:00;37.40;49.80
21246;DHT22;10781;50.928;4.440;2022-08-16T10:19:27;36.30;51.00
21246;DHT22;10781;50.928;4.440;2022-08-16T10:21:53;35.40;52.50
21246;DHT22;10781;50.928;4.440;2022-08-16T10:24:19;34.50;53.80
21246;DHT22;10781;50.928;4.440;2022-08-16T10:26:45;34.30;55.20
21246;DHT22;10781;50.928;4.440;2022-08-16T10:29:11;34.00;55.50
21246;DHT22;10781;50.928;4.440;2022-08-16T10:31:37;33.80;56.20
21246;DHT22;10781;50.928;4.440;2022-08-16T10:34:03;33.40;56.60
21246;DHT22;10781;50.928;4.440;2022-08-16T10:36:28;32.80;57.60
21246;DHT22;10781;50.928;4.440;2022-08-16T10:38:54;32.30;59.40
21246;DHT22;10781;50.928;4.440;2022-08-16T10:41:20;32.20;59.40
21246;DHT22;10781;50.928;4.440;2022-08-16T10:43:46;31.90;59.60
21246;DHT22;10781;50.928;4.440;2022-08-16T10:46:13;31.80;60.40
21246;DHT22;10781;50.928;4.440;2022-08-16T10:48:40;31.90;60.30
21246;DHT22;10781;50.928;4.440;2022-08-16T10:51:07;31.90;60.80
21246;DHT22;10781;50.928;4.440;2022-08-16T10:53:34;32.30;61.00
21246;DHT22;10781;50.928;4.440;2022-08-16T10:56:03;32.60;59.90
21246;DHT22;10781;50.928;4.440;2022-08-16T10:58:29;32.80;59.60
21246;DHT22;10781;50.928;4.440;2022-08-16T11:00:55;33.10;60.20
21246;DHT22;10781;50.928;4.440;2022-08-16T11:03:21;33.40;59.10
21246;DHT22;10781;50.928;4.440;2022-08-16T11:05:46;33.80;59.30
21246;DHT22;10781;50.928;4.440;2022-08-16T11:08:12;34.70;57.10
21246;DHT22;10781;50.928;4.440;2022-08-16T11:10:40;34.20;57.00
21246;DHT22;10781;50.928;4.440;2022-08-16T11:13:07;33.60;58.00
21246;DHT22;10781;50.928;4.440;2022-08-16T11:15:35;33.30;59.20
21246;DHT22;10781;50.928;4.440;2022-08-16T11:18:01;32.90;59.20
21246;DHT22;10781;50.928;4.440;2022-08-16T11:20:27;33.00;59.80
21246;DHT22;10781;50.928;4.440;2022-08-16T11:22:53;33.00;60.00
21246;DHT22;10781;50.928;4.440;2022-08-16T11:25:25;33.10;59.60
21246;DHT22;10781;50.928;4.440;2022-08-16T11:27:51;33.40;59.50
21246;DHT22;10781;50.928;4.440;2022-08-16T11:30:18;34.00;59.30
21246;DHT22;10781;50.928;4.440;2022-08-16T11:32:44;33.90;59.00
21246;DHT22;10781;50.928;4.440;2022-08-16T11:35:13;34.10;58.10
21246;DHT22;10781;50.928;4.440;2022-08-16T11:37:40;33.90;58.70
21246;DHT22;10781;50.928;4.440;2022-08-16T11:40:07;33.70;58.80
21246;DHT22;10781;50.928;4.440;2022-08-16T11:42:33;34.10;59.20
21246;DHT22;10781;50.928;4.440;2022-08-16T11:44:59;35.10;59.20
21246;DHT22;10781;50.928;4.440;2022-08-16T11:47:24;36.40;57.20
21246;DHT22;10781;50.928;4.440;2022-08-16T11:49:50;37.40;54.00
21246;DHT22;10781;50.928;4.440;2022-08-16T11:52:16;38.00;52.70
21246;DHT22;10781;50.928;4.440;2022-08-16T11:54:44;38.40;52.10
21246;DHT22;10781;50.928;4.440;2022-08-16T11:57:10;38.60;52.20
21246;DHT22;10781;50.928;4.440;2022-08-16T11:59:38;40.20;50.30
21246;DHT22;10781;50.928;4.440;2022-08-16T12:02:04;40.50;48.40
21246;DHT22;10781;50.928;4.440;2022-08-16T12:04:32;41.20;47.60
21246;DHT22;10781;50.928;4.440;2022-08-16T12:06:59;40.90;46.50
21246;DHT22;10781;50.928;4.440;2022-08-16T12:09:25;41.00;46.40
21246;DHT22;10781;50.928;4.440;2022-08-16T12:11:51;41.20;46.90
21246;DHT22;10781;50.928;4.440;2022-08-16T12:14:16;41.20;46.20
21246;DHT22;10781;50.928;4.440;2022-08-16T12:16:42;41.20;45.70
21246;DHT22;10781;50.928;4.440;2022-08-16T12:19:08;40.60;45.60
21246;DHT22;10781;50.928;4.440;2022-08-16T12:21:35;41.00;46.50
21246;DHT22;10781;50.928;4.440;2022-08-16T12:24:01;41.30;45.50
21246;DHT22;10781;50.928;4.440;2022-08-16T12:26:27;41.40;44.90
21246;DHT22;10781;50.928;4.440;2022-08-16T12:28:53;42.00;43.90
21246;DHT22;10781;50.928;4.440;2022-08-16T12:31:20;42.20;41.90
21246;DHT22;10781;50.928;4.440;2022-08-16T12:33:46;41.50;42.50
21246;DHT22;10781;50.928;4.440;2022-08-16T12:36:12;41.50;42.20
21246;DHT22;10781;50.928;4.440;2022-08-16T12:38:39;40.60;42.50
21246;DHT22;10781;50.928;4.440;2022-08-16T12:41:05;39.50;43.80
21246;DHT22;10781;50.928;4.440;2022-08-16T12:43:31;38.60;46.40
21246;DHT22;10781;50.928;4.440;2022-08-16T12:45:57;38.10;46.70
21246;DHT22;10781;50.928;4.440;2022-08-16T12:48:27;38.10;47.70
21246;DHT22;10781;50.928;4.440;2022-08-16T12:51:15;38.30;47.30
21246;DHT22;10781;50.928;4.440;2022-08-16T12:53:42;38.30;47.60
21246;DHT22;10781;50.928;4.440;2022-08-16T12:56:09;38.80;47.80
21246;DHT22;10781;50.928;4.440;2022-08-16T12:58:39;39.50;46.60
21246;DHT22;10781;50.928;4.440;2022-08-16T13:01:06;40.00;45.40
21246;DHT22;10781;50.928;4.440;2022-08-16T13:03:31;40.50;45.20
21246;DHT22;10781;50.928;4.440;2022-08-16T13:05:57;41.00;44.20
21246;DHT22;10781;50.928;4.440;2022-08-16T13:08:23;41.00;43.90
21246;DHT22;10781;50.928;4.440;2022-08-16T13:10:50;41.50;43.60
21246;DHT22;10781;50.928;4.440;2022-08-16T13:13:19;41.60;43.20
21246;DHT22;10781;50.928;4.440;2022-08-16T13:15:54;41.60;43.20
21246;DHT22;10781;50.928;4.440;2022-08-16T13:18:20;41.50;43.10
21246;DHT22;10781;50.928;4.440;2022-08-16T13:20:46;40.80;43.40
21246;DHT22;10781;50.928;4.440;2022-08-16T13:23:12;40.10;44.60
21246;DHT22;10781;50.928;4.440;2022-08-16T13:25:41;39.80;44.80
21246;DHT22;10781;50.928;4.440;2022-08-16T13:28:08;39.90;44.40
21246;DHT22;10781;50.928;4.440;2022-08-16T13:30:39;39.60;44.90
21246;DHT22;10781;50.928;4.440;2022-08-16T13:33:06;39.30;45.20
21246;DHT22;10781;50.928;4.440;2022-08-16T13:35:32;39.90;46.00
21246;DHT22;10781;50.928;4.440;2022-08-16T13:37:58;39.50;44.90
21246;DHT22;10781;50.928;4.440;2022-08-16T13:40:24;37.50;47.00
21246;DHT22;10781;50.928;4.440;2022-08-16T13:42:52;37.00;47.60
21246;DHT22;10781;50.928;4.440;2022-08-16T13:45:18;36.70;48.60
21246;DHT22;10781;50.928;4.440;2022-08-16T13:47:44;36.70;48.40
21246;DHT22;10781;50.928;4.440;2022-08-16T13:50:10;36.90;48.20
21246;DHT22;10781;50.928;4.440;2022-08-16T13:52:36;37.60;48.20
21246;DHT22;10781;50.928;4.440;2022-08-16T13:55:03;37.90;48.00
21246;DHT22;10781;50.928;4.440;2022-08-16T13:57:29;36.90;47.80
21246;DHT22;10781;50.928;4.440;2022-08-16T13:59:55;36.10;48.40
21246;DHT22;10781;50.928;4.440;2022-08-16T14:02:21;35.60;50.00
21246;DHT22;10781;50.928;4.440;2022-08-16T14:04:46;35.60;50.40
21246;DHT22;10781;50.928;4.440;2022-08-16T14:07:14;35.10;51.00
21246;DHT22;10781;50.928;4.440;2022-08-16T14:09:40;34.90;51.70
21246;DHT22;10781;50.928;4.440;2022-08-16T14:12:20;34.90;51.50
21246;DHT22;10781;50.928;4.440;2022-08-16T14:14:46;35.00;51.50
21246;DHT22;10781;50.928;4.440;2022-08-16T14:17:12;34.70;51.80
21246;DHT22;10781;50.928;4.440;2022-08-16T14:19:38;34.50;51.60
21246;DHT22;10781;50.928;4.440;2022-08-16T14:22:04;34.30;52.30
21246;DHT22;10781;50.928;4.440;2022-08-16T14:24:29;34.20;52.80
21246;DHT22;10781;50.928;4.440;2022-08-16T14:26:55;34.20;52.90
21246;DHT22;10781;50.928;4.440;2022-08-16T14:29:21;34.30;52.80
21246;DHT22;10781;50.928;4.440;2022-08-16T14:31:47;34.60;53.30
21246;DHT22;10781;50.928;4.440;2022-08-16T14:34:13;34.50;52.50
21246;DHT22;10781;50.928;4.440;2022-08-16T14:36:38;34.60;52.20
21246;DHT22;10781;50.928;4.440;2022-08-16T14:39:04;35.00;52.00
21246;DHT22;10781;50.928;4.440;2022-08-16T14:41:30;35.10;51.30
21246;DHT22;10781;50.928;4.440;2022-08-16T14:43:56;35.20;51.30
21246;DHT22;10781;50.928;4.440;2022-08-16T14:46:22;35.50;51.60
21246;DHT22;10781;50.928;4.440;2022-08-16T14:48:47;36.00;51.60
21246;DHT22;10781;50.928;4.440;2022-08-16T14:51:13;36.50;50.50
21246;DHT22;10781;50.928;4.440;2022-08-16T14:53:40;37.00;49.60
21246;DHT22;10781;50.928;4.440;2022-08-16T14:56:06;37.40;49.20
21246;DHT22;10781;50.928;4.440;2022-08-16T14:58:32;37.10;48.90
21246;DHT22;10781;50.928;4.440;2022-08-16T15:00:58;37.10;49.90
21246;DHT22;10781;50.928;4.440;2022-08-16T15:03:26;37.00;49.20
21246;DHT22;10781;50.928;4.440;2022-08-16T15:05:52;37.00;49.50
21246;DHT22;10781;50.928;4.440;2022-08-16T15:08:18;37.10;49.70
21246;DHT22;10781;50.928;4.440;2022-08-16T15:10:43;37.00;49.30
21246;DHT22;10781;50.928;4.440;2022-08-16T15:13:09;37.10;49.40
21246;DHT22;10781;50.928;4.440;2022-08-16T15:15:36;36.90;49.10
21246;DHT22;10781;50.928;4.440;2022-08-16T15:18:02;37.00;49.60
21246;DHT22;10781;50.928;4.440;2022-08-16T15:20:30;37.70;49.50
21246;DHT22;10781;50.928;4.440;2022-08-16T15:22:58;38.30;48.40
21246;DHT22;10781;50.928;4.440;2022-08-16T15:25:28;38.10;48.20
21246;DHT22;10781;50.928;4.440;2022-08-16T15:27:54;37.50;48.30
21246;DHT22;10781;50.928;4.440;2022-08-16T15:30:23;37.30;48.80
21246;DHT22;10781;50.928;4.440;2022-08-16T15:32:55;37.70;48.60